sensor_id;sensor_type;location;lat;lon;timestamp;pressure;altitude;pressure_sealevel;temperature;humidity
37206;BME280;23099;42.636;23.198;2023-05-24T00:01:00;91875.31;;;10.79;92.81
37206;BME280;23099;42.636;23.198;2023-05-24T00:03:28;91856.44;;;10.65;93.05
37206;BME280;23099;42.636;23.198;2023-05-24T00:05:59;91868.22;;;10.60;93.54
37206;BME280;23099;42.636;23.198;2023-05-24T00:08:26;91866.72;;;10.62;95.95
37206;BME280;23099;42.636;23.198;2023-05-24T00:10:52;91872.84;;;10.63;95.94
37206;BME280;23099;42.636;23.198;2023-05-24T00:13:19;91868.63;;;10.62;94.98
37206;BME280;23099;42.636;23.198;2023-05-24T00:15:46;91869.81;;;10.65;95.61
37206;BME280;23099;42.636;23.198;2023-05-24T00:18:12;91859.00;;;10.57;94.93
37206;BME280;23099;42.636;23.198;2023-05-24T00:20:43;91864.72;;;10.56;94.34
37206;BME280;23099;42.636;23.198;2023-05-24T00:23:10;91863.53;;;10.53;94.28
37206;BME280;23099;42.636;23.198;2023-05-24T00:25:36;91862.75;;;10.49;94.74
37206;BME280;23099;42.636;23.198;2023-05-24T00:28:03;91861.19;;;10.48;95.50
37206;BME280;23099;42.636;23.198;2023-05-24T00:30:30;91854.69;;;10.46;96.10
37206;BME280;23099;42.636;23.198;2023-05-24T00:32:56;91859.19;;;10.42;95.42
37206;BME280;23099;42.636;23.198;2023-05-24T00:35:23;91856.50;;;10.38;95.35
37206;BME280;23099;42.636;23.198;2023-05-24T00:37:51;91857.47;;;10.26;94.55
37206;BME280;23099;42.636;23.198;2023-05-24T00:40:18;91840.59;;;10.19;95.78
37206;BME280;23099;42.636;23.198;2023-05-24T00:42:45;91857.44;;;10.23;96.02
37206;BME280;23099;42.636;23.198;2023-05-24T00:45:12;91855.41;;;10.16;96.12
37206;BME280;23099;42.636;23.198;2023-05-24T00:47:39;91839.31;;;10.13;96.79
37206;BME280;23099;42.636;23.198;2023-05-24T00:50:07;91845.84;;;10.15;96.83
37206;BME280;23099;42.636;23.198;2023-05-24T00:52:36;91852.66;;;10.13;97.54
37206;BME280;23099;42.636;23.198;2023-05-24T00:55:05;91851.59;;;10.17;98.47
37206;BME280;23099;42.636;23.198;2023-05-24T00:57:32;91845.56;;;10.20;98.21
37206;BME280;23099;42.636;23.198;2023-05-24T01:00:01;91850.81;;;10.17;97.28
37206;BME280;23099;42.636;23.198;2023-05-24T01:02:29;91850.91;;;10.20;96.02
37206;BME280;23099;42.636;23.198;2023-05-24T01:04:56;91852.16;;;10.04;95.78
37206;BME280;23099;42.636;23.198;2023-05-24T01:07:27;91853.00;;;10.08;97.26
37206;BME280;23099;42.636;23.198;2023-05-24T01:10:06;91851.09;;;10.08;97.26
37206;BME280;23099;42.636;23.198;2023-05-24T01:12:44;91851.47;;;10.10;97.63
37206;BME280;23099;42.636;23.198;2023-05-24T01:15:19;91851.03;;;10.05;97.67
37206;BME280;23099;42.636;23.198;2023-05-24T01:17:52;91844.81;;;9.97;96.96
37206;BME280;23099;42.636;23.198;2023-05-24T01:20:21;91855.97;;;10.03;97.23
37206;BME280;23099;42.636;23.198;2023-05-24T01:23:12;91860.84;;;9.97;97.71
37206;BME280;23099;42.636;23.198;2023-05-24T01:25:48;91858.53;;;9.96;97.63
37206;BME280;23099;42.636;23.198;2023-05-24T01:28:21;91861.94;;;9.92;97.25
37206;BME280;23099;42.636;23.198;2023-05-24T01:30:49;91864.91;;;9.87;96.20
37206;BME280;23099;42.636;23.198;2023-05-24T01:33:16;91867.47;;;9.80;97.04
37206;BME280;23099;42.636;23.198;2023-05-24T01:35:43;91866.72;;;9.83;97.51
37206;BME280;23099;42.636;23.198;2023-05-24T01:38:10;91862.59;;;9.86;98.48
37206;BME280;23099;42.636;23.198;2023-05-24T01:40:37;91864.84;;;9.84;98.32
37206;BME280;23099;42.636;23.198;2023-05-24T01:43:13;91857.19;;;9.82;96.71
37206;BME280;23099;42.636;23.198;2023-05-24T01:45:48;91858.28;;;9.78;97.18
37206;BME280;23099;42.636;23.198;2023-05-24T01:48:20;91853.28;;;9.76;97.57
37206;BME280;23099;42.636;23.198;2023-05-24T01:50:52;91862.78;;;9.74;97.97
37206;BME280;23099;42.636;23.198;2023-05-24T01:53:23;91869.91;;;9.66;97.59
37206;BME280;23099;42.636;23.198;2023-05-24T01:55:54;91852.06;;;9.47;97.49
37206;BME280;23099;42.636;23.198;2023-05-24T01:58:22;91861.44;;;9.61;98.47
37206;BME280;23099;42.636;23.198;2023-05-24T02:00:52;91855.38;;;9.64;98.66
37206;BME280;23099;42.636;23.198;2023-05-24T02:03:20;91855.03;;;9.65;98.29
37206;BME280;23099;42.636;23.198;2023-05-24T02:05:47;91851.25;;;9.66;98.53
37206;BME280;23099;42.636;23.198;2023-05-24T02:08:14;91856.25;;;9.71;98.69
37206;BME280;23099;42.636;23.198;2023-05-24T02:10:40;91859.34;;;9.73;97.89
37206;BME280;23099;42.636;23.198;2023-05-24T02:13:07;91847.38;;;9.64;97.06
37206;BME280;23099;42.636;23.198;2023-05-24T02:15:34;91848.38;;;9.55;98.04
37206;BME280;23099;42.636;23.198;2023-05-24T02:18:03;91853.25;;;9.50;97.82
37206;BME280;23099;42.636;23.198;2023-05-24T02:20:32;91834.00;;;9.37;98.69
37206;BME280;23099;42.636;23.198;2023-05-24T02:23:01;91851.59;;;9.42;98.31
37206;BME280;23099;42.636;23.198;2023-05-24T02:25:28;91849.25;;;9.37;98.34
37206;BME280;23099;42.636;23.198;2023-05-24T02:27:56;91846.56;;;9.37;98.71
37206;BME280;23099;42.636;23.198;2023-05-24T02:30:22;91837.41;;;9.38;99.79
37206;BME280;23099;42.636;23.198;2023-05-24T02:32:49;91838.59;;;9.40;99.64
37206;BME280;23099;42.636;23.198;2023-05-24T02:35:17;91839.03;;;9.42;100.00
37206;BME280;23099;42.636;23.198;2023-05-24T02:37:45;91843.31;;;9.47;98.93
37206;BME280;23099;42.636;23.198;2023-05-24T02:40:12;91832.91;;;9.42;99.04
37206;BME280;23099;42.636;23.198;2023-05-24T02:42:39;91844.78;;;9.44;98.47
37206;BME280;23099;42.636;23.198;2023-05-24T02:45:06;91837.41;;;9.38;97.57
37206;BME280;23099;42.636;23.198;2023-05-24T02:47:33;91846.38;;;9.26;97.12
37206;BME280;23099;42.636;23.198;2023-05-24T02:50:00;91840.09;;;9.15;97.42
37206;BME280;23099;42.636;23.198;2023-05-24T02:52:28;91840.56;;;9.20;98.26
37206;BME280;23099;42.636;23.198;2023-05-24T02:54:55;91840.09;;;9.15;97.94
37206;BME280;23099;42.636;23.198;2023-05-24T02:57:21;91846.97;;;9.16;98.00
37206;BME280;23099;42.636;23.198;2023-05-24T02:59:48;91835.66;;;9.23;99.87
37206;BME280;23099;42.636;23.198;2023-05-24T03:02:15;91841.00;;;9.23;99.16
37206;BME280;23099;42.636;23.198;2023-05-24T03:04:42;91849.38;;;9.25;98.78
37206;BME280;23099;42.636;23.198;2023-05-24T03:07:08;91841.38;;;9.25;98.33
37206;BME280;23099;42.636;23.198;2023-05-24T03:09:37;91853.03;;;9.36;99.00
37206;BME280;23099;42.636;23.198;2023-05-24T03:12:04;91851.91;;;9.37;99.03
37206;BME280;23099;42.636;23.198;2023-05-24T03:14:31;91849.63;;;9.39;98.91
37206;BME280;23099;42.636;23.198;2023-05-24T03:16:58;91850.38;;;9.36;98.97
37206;BME280;23099;42.636;23.198;2023-05-24T03:19:24;91851.47;;;9.35;99.04
37206;BME280;23099;42.636;23.198;2023-05-24T03:21:51;91858.47;;;9.43;99.12
37206;BME280;23099;42.636;23.198;2023-05-24T03:24:18;91857.47;;;9.51;99.28
37206;BME280;23099;42.636;23.198;2023-05-24T03:26:46;91843.06;;;9.33;98.87
37206;BME280;23099;42.636;23.198;2023-05-24T03:29:13;91860.44;;;9.46;97.78
37206;BME280;23099;42.636;23.198;2023-05-24T03:31:39;91861.97;;;9.47;97.36
37206;BME280;23099;42.636;23.198;2023-05-24T03:34:06;91872.22;;;9.45;98.23
37206;BME280;23099;42.636;23.198;2023-05-24T03:36:33;91873.06;;;9.49;97.97
37206;BME280;23099;42.636;23.198;2023-05-24T03:39:00;91875.72;;;9.49;96.87
37206;BME280;23099;42.636;23.198;2023-05-24T03:41:28;91872.22;;;9.45;96.40
37206;BME280;23099;42.636;23.198;2023-05-24T03:43:56;91872.22;;;9.45;96.69
37206;BME280;23099;42.636;23.198;2023-05-24T03:46:23;91882.06;;;9.41;96.07
37206;BME280;23099;42.636;23.198;2023-05-24T03:48:50;91875.53;;;9.38;96.12
37206;BME280;23099;42.636;23.198;2023-05-24T03:51:17;91870.50;;;9.33;96.09
37206;BME280;23099;42.636;23.198;2023-05-24T03:53:43;91880.88;;;9.38;95.99
37206;BME280;23099;42.636;23.198;2023-05-24T03:56:10;91871.72;;;9.39;97.70
37206;BME280;23099;42.636;23.198;2023-05-24T03:58:37;91881.19;;;9.33;96.67
37206;BME280;23099;42.636;23.198;2023-05-24T04:01:05;91873.59;;;9.35;98.36
37206;BME280;23099;42.636;23.198;2023-05-24T04:03:32;91882.06;;;9.41;98.39
37206;BME280;23099;42.636;23.198;2023-05-24T04:05:59;91885.03;;;9.36;98.51
37206;BME280;23099;42.636;23.198;2023-05-24T04:08:25;91882.13;;;9.44;99.53
37206;BME280;23099;42.636;23.198;2023-05-24T04:10:52;91885.97;;;9.47;99.34
37206;BME280;23099;42.636;23.198;2023-05-24T04:13:19;91885.31;;;9.53;98.18
37206;BME280;23099;42.636;23.198;2023-05-24T04:15:46;91884.66;;;9.60;99.55
37206;BME280;23099;42.636;23.198;2023-05-24T04:18:14;91885.50;;;9.64;98.99
37206;BME280;23099;42.636;23.198;2023-05-24T04:20:41;91889.75;;;9.69;98.30
37206;BME280;23099;42.636;23.198;2023-05-24T04:23:07;91885.66;;;9.75;98.47
37206;BME280;23099;42.636;23.198;2023-05-24T04:25:34;91883.28;;;9.70;98.50
37206;BME280;23099;42.636;23.198;2023-05-24T04:28:01;91874.59;;;9.73;99.62
37206;BME280;23099;42.636;23.198;2023-05-24T04:30:28;91882.44;;;9.62;97.62
37206;BME280;23099;42.636;23.198;2023-05-24T04:32:55;91880.22;;;9.68;98.21
37206;BME280;23099;42.636;23.198;2023-05-24T04:35:23;91881.81;;;9.72;99.67
37206;BME280;23099;42.636;23.198;2023-05-24T04:37:50;91880.03;;;9.80;99.76
37206;BME280;23099;42.636;23.198;2023-05-24T04:40:17;91865.16;;;9.79;99.49
37206;BME280;23099;42.636;23.198;2023-05-24T04:42:45;91886.00;;;9.96;98.60
37206;BME280;23099;42.636;23.198;2023-05-24T04:45:11;91888.06;;;10.06;98.04
37206;BME280;23099;42.636;23.198;2023-05-24T04:47:38;91897.28;;;10.12;97.01
37206;BME280;23099;42.636;23.198;2023-05-24T04:50:05;91891.03;;;10.24;97.98
37206;BME280;23099;42.636;23.198;2023-05-24T04:52:34;91900.38;;;10.37;98.70
37206;BME280;23099;42.636;23.198;2023-05-24T04:55:01;91897.06;;;10.47;99.11
37206;BME280;23099;42.636;23.198;2023-05-24T04:57:28;91886.84;;;10.53;98.78
37206;BME280;23099;42.636;23.198;2023-05-24T04:59:55;91901.19;;;10.71;98.39
37206;BME280;23099;42.636;23.198;2023-05-24T05:02:22;91899.38;;;10.79;98.42
37206;BME280;23099;42.636;23.198;2023-05-24T05:04:50;91907.13;;;10.87;98.32
37206;BME280;23099;42.636;23.198;2023-05-24T05:07:17;91909.47;;;10.92;98.75
37206;BME280;23099;42.636;23.198;2023-05-24T05:09:45;91901.53;;;10.99;98.59
37206;BME280;23099;42.636;23.198;2023-05-24T05:12:11;91899.72;;;11.07;99.18
37206;BME280;23099;42.636;23.198;2023-05-24T05:14:38;91904.41;;;11.17;99.20
37206;BME280;23099;42.636;23.198;2023-05-24T05:17:05;91899.16;;;11.28;98.83
37206;BME280;23099;42.636;23.198;2023-05-24T05:19:31;91906.19;;;11.43;98.27
37206;BME280;23099;42.636;23.198;2023-05-24T05:21:58;91908.22;;;11.53;96.67
37206;BME280;23099;42.636;23.198;2023-05-24T05:24:25;91904.50;;;11.65;95.74
37206;BME280;23099;42.636;23.198;2023-05-24T05:26:53;91906.50;;;11.75;95.40
37206;BME280;23099;42.636;23.198;2023-05-24T05:29:20;91908.13;;;11.83;95.93
37206;BME280;23099;42.636;23.198;2023-05-24T05:31:46;91907.47;;;11.93;95.46
37206;BME280;23099;42.636;23.198;2023-05-24T05:34:13;91905.59;;;12.01;94.29
37206;BME280;23099;42.636;23.198;2023-05-24T05:36:40;91904.16;;;12.11;94.54
37206;BME280;23099;42.636;23.198;2023-05-24T05:39:07;91905.75;;;12.19;94.61
37206;BME280;23099;42.636;23.198;2023-05-24T05:41:37;91898.91;;;12.28;95.81
37206;BME280;23099;42.636;23.198;2023-05-24T05:44:06;91893.97;;;12.34;95.81
37206;BME280;23099;42.636;23.198;2023-05-24T05:46:32;91901.69;;;12.43;95.48
37206;BME280;23099;42.636;23.198;2023-05-24T05:48:59;91903.66;;;12.49;95.65
37206;BME280;23099;42.636;23.198;2023-05-24T05:51:26;91911.78;;;12.63;94.51
37206;BME280;23099;42.636;23.198;2023-05-24T05:53:53;91905.69;;;12.73;92.87
37206;BME280;23099;42.636;23.198;2023-05-24T05:56:19;91901.16;;;12.81;91.61
37206;BME280;23099;42.636;23.198;2023-05-24T05:58:46;91908.88;;;12.93;89.76
37206;BME280;23099;42.636;23.198;2023-05-24T06:01:14;91907.34;;;12.99;88.48
37206;BME280;23099;42.636;23.198;2023-05-24T06:03:41;91909.72;;;13.12;84.59
37206;BME280;23099;42.636;23.198;2023-05-24T06:06:08;91918.19;;;13.17;84.43
37206;BME280;23099;42.636;23.198;2023-05-24T06:08:34;91920.16;;;13.34;83.12
37206;BME280;23099;42.636;23.198;2023-05-24T06:11:01;91928.66;;;13.47;82.87
37206;BME280;23099;42.636;23.198;2023-05-24T06:13:28;91921.00;;;13.56;84.80
37206;BME280;23099;42.636;23.198;2023-05-24T06:15:55;91920.25;;;13.63;85.22
37206;BME280;23099;42.636;23.198;2023-05-24T06:18:24;91917.97;;;13.72;85.21
37206;BME280;23099;42.636;23.198;2023-05-24T06:20:51;91926.03;;;13.79;84.30
37206;BME280;23099;42.636;23.198;2023-05-24T06:23:18;91917.59;;;13.88;84.07
37206;BME280;23099;42.636;23.198;2023-05-24T06:25:45;91916.06;;;13.90;84.85
37206;BME280;23099;42.636;23.198;2023-05-24T06:28:12;91914.94;;;13.98;84.03
37206;BME280;23099;42.636;23.198;2023-05-24T06:30:39;91918.41;;;14.09;84.59
37206;BME280;23099;42.636;23.198;2023-05-24T06:33:05;91921.47;;;14.22;84.54
37206;BME280;23099;42.636;23.198;2023-05-24T06:35:33;91918.41;;;14.27;85.99
37206;BME280;23099;42.636;23.198;2023-05-24T06:38:00;91919.53;;;14.37;85.72
37206;BME280;23099;42.636;23.198;2023-05-24T06:40:27;91929.53;;;14.47;84.88
37206;BME280;23099;42.636;23.198;2023-05-24T06:42:53;91912.63;;;14.57;84.82
37206;BME280;23099;42.636;23.198;2023-05-24T06:45:20;91918.00;;;14.64;84.01
37206;BME280;23099;42.636;23.198;2023-05-24T06:47:47;91913.78;;;14.70;85.01
37206;BME280;23099;42.636;23.198;2023-05-24T06:50:13;91915.28;;;14.85;84.64
37206;BME280;23099;42.636;23.198;2023-05-24T06:52:42;91911.41;;;14.94;83.96
37206;BME280;23099;42.636;23.198;2023-05-24T06:55:09;91920.22;;;15.01;80.38
37206;BME280;23099;42.636;23.198;2023-05-24T06:57:36;91910.59;;;15.11;80.31
37206;BME280;23099;42.636;23.198;2023-05-24T07:00:03;91912.06;;;15.23;81.21
37206;BME280;23099;42.636;23.198;2023-05-24T07:02:34;91911.25;;;15.33;80.69
37206;BME280;23099;42.636;23.198;2023-05-24T07:05:00;91918.91;;;15.45;78.54
37206;BME280;23099;42.636;23.198;2023-05-24T07:07:27;91925.00;;;15.60;78.54
37206;BME280;23099;42.636;23.198;2023-05-24T07:09:55;91925.31;;;15.76;76.65
37206;BME280;23099;42.636;23.198;2023-05-24T07:12:22;91915.22;;;15.90;76.75
37206;BME280;23099;42.636;23.198;2023-05-24T07:14:48;91924.38;;;16.04;72.73
37206;BME280;23099;42.636;23.198;2023-05-24T07:17:16;91918.09;;;16.21;72.99
37206;BME280;23099;42.636;23.198;2023-05-24T07:19:42;91912.66;;;16.28;69.05
37206;BME280;23099;42.636;23.198;2023-05-24T07:22:09;91921.41;;;16.39;67.69
37206;BME280;23099;42.636;23.198;2023-05-24T07:24:35;91919.78;;;16.49;66.09
37206;BME280;23099;42.636;23.198;2023-05-24T07:27:04;91917.75;;;16.60;67.21
37206;BME280;23099;42.636;23.198;2023-05-24T07:29:31;91921.88;;;16.79;66.71
37206;BME280;23099;42.636;23.198;2023-05-24T07:31:58;91926.38;;;16.89;66.01
37206;BME280;23099;42.636;23.198;2023-05-24T07:34:25;91929.72;;;17.04;65.74
37206;BME280;23099;42.636;23.198;2023-05-24T07:36:54;91934.25;;;17.14;64.07
37206;BME280;23099;42.636;23.198;2023-05-24T07:39:21;91922.88;;;17.29;63.25
37206;BME280;23099;42.636;23.198;2023-05-24T07:41:48;91933.88;;;17.46;64.96
37206;BME280;23099;42.636;23.198;2023-05-24T07:44:17;91919.47;;;17.56;65.97
37206;BME280;23099;42.636;23.198;2023-05-24T07:46:45;91924.75;;;17.70;65.80
37206;BME280;23099;42.636;23.198;2023-05-24T07:49:11;91931.56;;;17.78;65.47
37206;BME280;23099;42.636;23.198;2023-05-24T07:51:38;91927.97;;;17.88;62.63
37206;BME280;23099;42.636;23.198;2023-05-24T07:54:05;91920.84;;;18.01;63.54
37206;BME280;23099;42.636;23.198;2023-05-24T07:56:32;91922.94;;;18.17;63.76
37206;BME280;23099;42.636;23.198;2023-05-24T07:58:58;91919.16;;;18.34;62.74
37206;BME280;23099;42.636;23.198;2023-05-24T08:01:30;91917.94;;;18.39;61.52
37206;BME280;23099;42.636;23.198;2023-05-24T08:03:58;91926.72;;;18.47;61.42
37206;BME280;23099;42.636;23.198;2023-05-24T08:06:25;91925.03;;;18.56;60.12
37206;BME280;23099;42.636;23.198;2023-05-24T08:08:53;91931.41;;;18.69;61.45
37206;BME280;23099;42.636;23.198;2023-05-24T08:11:19;91923.50;;;18.79;62.12
37206;BME280;23099;42.636;23.198;2023-05-24T08:13:46;91919.97;;;18.82;57.31
37206;BME280;23099;42.636;23.198;2023-05-24T08:16:13;91914.56;;;18.82;51.93
37206;BME280;23099;42.636;23.198;2023-05-24T08:18:41;91931.13;;;18.87;52.38
37206;BME280;23099;42.636;23.198;2023-05-24T08:21:07;91925.28;;;18.89;54.50
37206;BME280;23099;42.636;23.198;2023-05-24T08:23:34;91916.63;;;18.97;54.10
37206;BME280;23099;42.636;23.198;2023-05-24T08:26:01;91923.88;;;19.04;56.10
37206;BME280;23099;42.636;23.198;2023-05-24T08:28:28;91920.97;;;19.15;51.33
37206;BME280;23099;42.636;23.198;2023-05-24T08:30:54;91918.88;;;19.22;51.38
37206;BME280;23099;42.636;23.198;2023-05-24T08:33:21;91914.56;;;19.25;52.18
37206;BME280;23099;42.636;23.198;2023-05-24T08:35:50;91915.63;;;19.31;52.08
37206;BME280;23099;42.636;23.198;2023-05-24T08:38:17;91919.22;;;19.44;52.12
37206;BME280;23099;42.636;23.198;2023-05-24T08:40:44;91904.69;;;19.34;54.13
37206;BME280;23099;42.636;23.198;2023-05-24T08:43:11;91920.63;;;19.52;53.82
37206;BME280;23099;42.636;23.198;2023-05-24T08:45:38;91891.13;;;19.34;52.18
37206;BME280;23099;42.636;23.198;2023-05-24T08:48:05;91914.94;;;19.66;51.07
37206;BME280;23099;42.636;23.198;2023-05-24T08:50:33;91900.25;;;19.44;46.57
37206;BME280;23099;42.636;23.198;2023-05-24T08:53:03;91904.84;;;19.67;49.28
37206;BME280;23099;42.636;23.198;2023-05-24T08:55:31;91918.94;;;19.78;46.57
37206;BME280;23099;42.636;23.198;2023-05-24T08:57:59;91918.88;;;19.82;47.92
37206;BME280;23099;42.636;23.198;2023-05-24T09:00:26;91914.63;;;19.81;47.78
37206;BME280;23099;42.636;23.198;2023-05-24T09:02:53;91916.38;;;19.91;46.88
37206;BME280;23099;42.636;23.198;2023-05-24T09:05:20;91913.16;;;19.96;47.91
37206;BME280;23099;42.636;23.198;2023-05-24T09:07:48;91914.44;;;20.07;48.65
37206;BME280;23099;42.636;23.198;2023-05-24T09:10:19;91912.06;;;20.09;45.91
37206;BME280;23099;42.636;23.198;2023-05-24T09:12:50;91892.84;;;20.04;45.07
37206;BME280;23099;42.636;23.198;2023-05-24T09:15:17;91912.78;;;20.30;46.87
37206;BME280;23099;42.636;23.198;2023-05-24T09:17:44;91884.03;;;20.16;44.83
37206;BME280;23099;42.636;23.198;2023-05-24T09:20:12;91884.78;;;20.17;48.41
37206;BME280;23099;42.636;23.198;2023-05-24T09:22:40;91918.63;;;20.48;45.34
37206;BME280;23099;42.636;23.198;2023-05-24T09:25:08;91893.72;;;20.33;44.39
37206;BME280;23099;42.636;23.198;2023-05-24T09:27:37;91908.75;;;20.70;48.55
37206;BME280;23099;42.636;23.198;2023-05-24T09:30:07;91914.69;;;20.81;45.77
37206;BME280;23099;42.636;23.198;2023-05-24T09:32:34;91907.91;;;20.90;45.42
37206;BME280;23099;42.636;23.198;2023-05-24T09:35:01;91891.19;;;20.75;42.30
37206;BME280;23099;42.636;23.198;2023-05-24T09:37:28;91910.47;;;21.09;44.49
37206;BME280;23099;42.636;23.198;2023-05-24T09:39:55;91900.63;;;21.15;45.33
37206;BME280;23099;42.636;23.198;2023-05-24T09:42:24;91913.56;;;21.40;44.35
37206;BME280;23099;42.636;23.198;2023-05-24T09:45:00;91904.66;;;21.40;41.38
37206;BME280;23099;42.636;23.198;2023-05-24T09:47:28;91909.16;;;21.46;42.73
37206;BME280;23099;42.636;23.198;2023-05-24T09:49:55;91905.03;;;21.55;40.93
37206;BME280;23099;42.636;23.198;2023-05-24T09:52:22;91900.50;;;21.35;39.51
37206;BME280;23099;42.636;23.198;2023-05-24T09:54:49;91905.25;;;21.47;40.42
37206;BME280;23099;42.636;23.198;2023-05-24T09:57:16;91870.59;;;21.35;40.01
37206;BME280;23099;42.636;23.198;2023-05-24T09:59:43;91908.78;;;21.73;39.86
37206;BME280;23099;42.636;23.198;2023-05-24T10:02:11;91890.94;;;21.72;38.16
37206;BME280;23099;42.636;23.198;2023-05-24T10:04:38;91883.19;;;21.58;38.97
37206;BME280;23099;42.636;23.198;2023-05-24T10:07:05;91897.91;;;21.86;38.71
37206;BME280;23099;42.636;23.198;2023-05-24T10:09:34;91887.72;;;21.90;38.63
37206;BME280;23099;42.636;23.198;2023-05-24T10:12:02;91897.22;;;22.11;40.79
37206;BME280;23099;42.636;23.198;2023-05-24T10:14:33;91887.22;;;22.20;38.54
37206;BME280;23099;42.636;23.198;2023-05-24T10:17:00;91865.31;;;22.11;38.72
37206;BME280;23099;42.636;23.198;2023-05-24T10:19:29;91894.50;;;22.49;37.42
37206;BME280;23099;42.636;23.198;2023-05-24T10:21:57;91870.59;;;22.66;38.97
37206;BME280;23099;42.636;23.198;2023-05-24T10:24:28;91885.09;;;22.88;37.76
37206;BME280;23099;42.636;23.198;2023-05-24T10:26:59;91894.09;;;22.98;37.25
37206;BME280;23099;42.636;23.198;2023-05-24T10:29:38;91885.50;;;22.99;35.98
37206;BME280;23099;42.636;23.198;2023-05-24T10:32:09;91855.50;;;22.99;35.90
37206;BME280;23099;42.636;23.198;2023-05-24T10:34:38;91881.63;;;23.22;35.63
37206;BME280;23099;42.636;23.198;2023-05-24T10:37:06;91872.09;;;23.26;35.04
37206;BME280;23099;42.636;23.198;2023-05-24T10:39:34;91883.53;;;23.34;32.38
37206;BME280;23099;42.636;23.198;2023-05-24T10:42:01;91890.00;;;23.49;34.47
37206;BME280;23099;42.636;23.198;2023-05-24T10:44:29;91840.53;;;23.60;33.49
37206;BME280;23099;42.636;23.198;2023-05-24T10:47:09;91842.63;;;23.78;34.48
37206;BME280;23099;42.636;23.198;2023-05-24T10:49:38;91855.78;;;24.10;32.95
37206;BME280;23099;42.636;23.198;2023-05-24T10:52:12;91841.88;;;24.17;33.82
37206;BME280;23099;42.636;23.198;2023-05-24T10:54:40;91864.06;;;24.68;33.68
37206;BME280;23099;42.636;23.198;2023-05-24T10:57:07;91866.22;;;24.83;32.12
37206;BME280;23099;42.636;23.198;2023-05-24T10:59:34;91846.81;;;24.81;33.27
37206;BME280;23099;42.636;23.198;2023-05-24T11:02:05;91862.53;;;25.08;33.36
37206;BME280;23099;42.636;23.198;2023-05-24T11:04:37;91861.00;;;25.07;31.66
37206;BME280;23099;42.636;23.198;2023-05-24T11:07:07;91853.38;;;25.11;30.40
37206;BME280;23099;42.636;23.198;2023-05-24T11:09:35;91860.41;;;25.21;33.69
37206;BME280;23099;42.636;23.198;2023-05-24T11:12:05;91825.00;;;25.08;33.66
37206;BME280;23099;42.636;23.198;2023-05-24T11:14:35;91833.63;;;25.16;31.81
37206;BME280;23099;42.636;23.198;2023-05-24T11:17:04;91854.59;;;25.46;34.92
37206;BME280;23099;42.636;23.198;2023-05-24T11:19:33;91840.78;;;25.68;32.87
37206;BME280;23099;42.636;23.198;2023-05-24T11:22:06;91853.50;;;25.89;32.70
37206;BME280;23099;42.636;23.198;2023-05-24T11:24:33;91833.44;;;25.83;30.40
37206;BME280;23099;42.636;23.198;2023-05-24T11:27:01;91854.22;;;26.08;33.41
37206;BME280;23099;42.636;23.198;2023-05-24T11:29:28;91850.13;;;26.03;29.73
37206;BME280;23099;42.636;23.198;2023-05-24T11:31:56;91854.19;;;26.17;33.41
37206;BME280;23099;42.636;23.198;2023-05-24T11:34:28;91856.63;;;26.15;29.39
37206;BME280;23099;42.636;23.198;2023-05-24T11:36:57;91838.84;;;26.11;30.05
37206;BME280;23099;42.636;23.198;2023-05-24T11:39:30;91861.34;;;26.15;33.29
37206;BME280;23099;42.636;23.198;2023-05-24T11:41:57;91838.25;;;26.06;30.17
37206;BME280;23099;42.636;23.198;2023-05-24T11:44:24;91843.81;;;26.30;30.74
37206;BME280;23099;42.636;23.198;2023-05-24T11:46:56;91803.97;;;26.20;32.59
37206;BME280;23099;42.636;23.198;2023-05-24T11:49:24;91836.28;;;26.49;33.25
37206;BME280;23099;42.636;23.198;2023-05-24T11:51:52;91815.03;;;26.35;31.82
37206;BME280;23099;42.636;23.198;2023-05-24T11:54:19;91826.47;;;26.57;30.18
37206;BME280;23099;42.636;23.198;2023-05-24T11:56:48;91836.88;;;26.53;31.42
37206;BME280;23099;42.636;23.198;2023-05-24T11:59:17;91832.41;;;26.32;30.37
37206;BME280;23099;42.636;23.198;2023-05-24T12:01:47;91826.00;;;26.35;30.47
37206;BME280;23099;42.636;23.198;2023-05-24T12:04:14;91818.66;;;26.41;31.48
37206;BME280;23099;42.636;23.198;2023-05-24T12:06:42;91819.78;;;26.16;31.16
37206;BME280;23099;42.636;23.198;2023-05-24T12:09:11;91816.25;;;26.34;31.14
37206;BME280;23099;42.636;23.198;2023-05-24T12:11:39;91823.66;;;26.00;32.26
37206;BME280;23099;42.636;23.198;2023-05-24T12:14:10;91823.13;;;26.20;30.94
37206;BME280;23099;42.636;23.198;2023-05-24T12:16:38;91819.00;;;26.34;29.96
37206;BME280;23099;42.636;23.198;2023-05-24T12:19:05;91827.53;;;26.36;32.88
37206;BME280;23099;42.636;23.198;2023-05-24T12:21:32;91820.41;;;26.20;30.93
37206;BME280;23099;42.636;23.198;2023-05-24T12:24:09;91807.53;;;26.02;30.87
37206;BME280;23099;42.636;23.198;2023-05-24T12:26:43;91811.13;;;26.18;30.02
37206;BME280;23099;42.636;23.198;2023-05-24T12:29:12;91779.75;;;25.86;31.52
37206;BME280;23099;42.636;23.198;2023-05-24T12:31:39;91813.75;;;26.03;29.90
37206;BME280;23099;42.636;23.198;2023-05-24T12:34:10;91786.50;;;25.66;29.97
37206;BME280;23099;42.636;23.198;2023-05-24T12:36:37;91806.25;;;25.70;31.08
37206;BME280;23099;42.636;23.198;2023-05-24T12:39:15;91774.63;;;25.60;30.72
37206;BME280;23099;42.636;23.198;2023-05-24T12:41:43;91803.50;;;25.80;31.76
37206;BME280;23099;42.636;23.198;2023-05-24T12:44:11;91797.28;;;25.61;29.62
37206;BME280;23099;42.636;23.198;2023-05-24T12:46:38;91803.53;;;25.43;31.72
37206;BME280;23099;42.636;23.198;2023-05-24T12:49:05;91799.00;;;25.31;29.54
37206;BME280;23099;42.636;23.198;2023-05-24T12:51:32;91794.59;;;25.15;30.70
37206;BME280;23099;42.636;23.198;2023-05-24T12:53:58;91782.44;;;25.07;31.05
37206;BME280;23099;42.636;23.198;2023-05-24T12:56:29;91812.22;;;25.23;30.98